createdAt,value
2024-05-09T00:00:40.367Z,68.45
2024-05-09T00:03:10.040Z,68.31
2024-05-09T00:05:40.031Z,68.60
2024-05-09T00:08:07.283Z,68.52
2024-05-09T00:10:37.466Z,68.39
2024-05-09T00:13:10.760Z,68.48
2024-05-09T00:15:38.215Z,68.29
2024-05-09T00:18:06.818Z,68.32
2024-05-09T00:20:38.912Z,68.30
2024-05-09T00:23:12.209Z,68.28
2024-05-09T00:25:40.774Z,68.30
2024-05-09T00:28:07.458Z,68.20
2024-05-09T00:30:36.337Z,68.20
2024-05-09T00:33:06.019Z,68.32
2024-05-09T00:35:33.970Z,67.90
2024-05-09T00:38:00.994Z,67.89
2024-05-09T00:40:38.772Z,67.82
2024-05-09T00:43:08.027Z,67.80
2024-05-09T00:45:35.153Z,67.66
2024-05-09T00:48:07.467Z,67.67
2024-05-09T00:50:38.722Z,67.60
2024-05-09T00:53:07.618Z,67.54
2024-05-09T00:55:36.185Z,67.81
2024-05-09T00:58:03.715Z,67.61
2024-05-09T01:00:37.929Z,67.54
2024-05-09T01:03:07.775Z,67.61
2024-05-09T01:05:35.389Z,67.52
2024-05-09T01:08:03.045Z,67.61
2024-05-09T01:10:34.485Z,67.45
2024-05-09T01:13:07.309Z,67.46
2024-05-09T01:15:35.174Z,67.45
2024-05-09T01:18:09.378Z,67.31
2024-05-09T01:20:41.926Z,67.52
2024-05-09T01:23:11.969Z,67.43
2024-05-09T01:25:39.055Z,67.39
2024-05-09T01:28:06.168Z,67.56
2024-05-09T01:30:35.894Z,67.56
2024-05-09T01:33:06.602Z,67.63
2024-05-09T01:35:35.184Z,67.64
2024-05-09T01:38:02.116Z,67.68
2024-05-09T01:40:36.703Z,67.54
2024-05-09T01:43:06.607Z,67.43
2024-05-09T01:45:33.410Z,67.49
2024-05-09T01:48:00.906Z,67.58
2024-05-09T01:50:37.411Z,67.56
2024-05-09T01:53:08.969Z,67.63
2024-05-09T01:55:35.661Z,67.53
2024-05-09T01:58:02.333Z,67.51
2024-05-09T02:00:37.383Z,67.68
2024-05-09T02:03:10.207Z,67.68
2024-05-09T02:05:37.961Z,67.73
2024-05-09T02:08:05.653Z,67.72
2024-05-09T02:10:33.446Z,67.82
2024-05-09T02:13:00.739Z,67.84
2024-05-09T02:15:27.725Z,67.81
2024-05-09T02:17:54.699Z,67.75
2024-05-09T02:22:51.200Z,67.63
2024-05-09T02:25:17.827Z,67.91
2024-05-09T02:27:44.498Z,67.96
2024-05-09T02:30:18.771Z,67.76
2024-05-09T02:32:53.019Z,67.94
2024-05-09T02:35:19.714Z,67.78
2024-05-09T02:37:46.410Z,68.00
2024-05-09T02:40:14.989Z,68.08
2024-05-09T02:42:45.015Z,67.85
2024-05-09T02:45:11.611Z,67.74
2024-05-09T02:47:38.388Z,67.90
2024-05-09T02:50:07.808Z,67.87
2024-05-09T02:52:34.679Z,67.87
2024-05-09T02:55:01.301Z,67.97
2024-05-09T02:57:27.956Z,68.10
2024-05-09T02:59:54.702Z,68.03
2024-05-09T03:02:21.510Z,68.07
2024-05-09T03:04:48.298Z,68.09
2024-05-09T03:07:14.989Z,68.32
2024-05-09T03:09:46.495Z,68.28
2024-05-09T03:12:13.328Z,68.09
2024-05-09T03:14:40.070Z,68.13
2024-05-09T03:17:06.947Z,68.28
2024-05-09T03:19:35.648Z,68.20
2024-05-09T03:22:02.400Z,68.33
2024-05-09T03:24:29.039Z,68.27
2024-05-09T03:26:55.680Z,68.22
2024-05-09T03:29:22.420Z,68.36
2024-05-09T03:31:49.142Z,68.24
2024-05-09T03:34:16.011Z,68.29
2024-05-09T03:36:45.720Z,68.16
2024-05-09T03:39:12.416Z,68.16
2024-05-09T03:41:39.330Z,68.06
2024-05-09T03:44:06.152Z,68.00
2024-05-09T03:46:37.749Z,68.71
2024-05-09T03:49:04.563Z,68.82
2024-05-09T03:51:31.299Z,68.72
2024-05-09T03:53:58.482Z,68.47
2024-05-09T03:56:25.938Z,68.51
2024-05-09T03:58:52.771Z,68.25
2024-05-09T04:01:19.534Z,68.12
2024-05-09T04:03:46.384Z,67.90
2024-05-09T04:06:20.191Z,68.09
2024-05-09T04:08:46.940Z,68.19
2024-05-09T04:11:13.656Z,68.29
2024-05-09T04:13:40.391Z,68.34
2024-05-09T04:16:09.662Z,68.07
2024-05-09T04:18:36.769Z,68.27
2024-05-09T04:21:04.476Z,68.28
2024-05-09T04:23:31.313Z,68.27
2024-05-09T04:25:58.254Z,68.20
2024-05-09T04:28:26.180Z,68.14
2024-05-09T04:30:52.888Z,67.86
2024-05-09T04:33:20.027Z,67.92
2024-05-09T04:35:47.258Z,67.99
2024-05-09T04:38:14.900Z,68.26
2024-05-09T04:40:42.211Z,68.05
2024-05-09T04:43:15.346Z,67.95
2024-05-09T04:45:42.833Z,67.90
2024-05-09T04:48:09.695Z,67.75
2024-05-09T04:50:39.017Z,68.01
2024-05-09T04:53:09.027Z,67.85
2024-05-09T04:55:37.270Z,67.75
2024-05-09T04:58:04.986Z,67.82
2024-05-09T05:00:37.094Z,67.71
2024-05-09T05:03:13.202Z,67.85
2024-05-09T05:05:42.593Z,67.75
2024-05-09T05:08:17.421Z,67.88
2024-05-09T05:10:45.806Z,67.86
2024-05-09T05:13:18.431Z,67.53
2024-05-09T05:15:46.767Z,67.83
2024-05-09T05:18:15.124Z,68.03
2024-05-09T05:20:42.537Z,68.14
2024-05-09T05:23:14.042Z,68.35
2024-05-09T05:25:43.922Z,68.31
2024-05-09T05:28:11.131Z,68.41
2024-05-09T05:30:38.665Z,68.22
2024-05-09T05:33:06.510Z,68.38
2024-05-09T05:35:34.698Z,68.45
2024-05-09T05:38:02.682Z,68.37
2024-05-09T05:40:36.395Z,68.51
2024-05-09T05:43:16.387Z,68.17
2024-05-09T05:45:43.335Z,68.14
2024-05-09T05:48:10.558Z,68.29
2024-05-09T05:50:38.478Z,68.16
2024-05-09T05:53:06.802Z,68.39
2024-05-09T05:55:33.744Z,68.34
2024-05-09T05:58:02.078Z,67.95
2024-05-09T06:00:34.905Z,68.13
2024-05-09T06:03:05.822Z,68.43
2024-05-09T06:05:33.017Z,68.09
2024-05-09T06:08:00.009Z,67.90
2024-05-09T06:10:36.929Z,67.76
2024-05-09T06:13:06.501Z,67.65
2024-05-09T06:15:33.179Z,67.19
2024-05-09T06:18:00.090Z,67.64
2024-05-09T06:20:34.806Z,67.58
2024-05-09T06:23:05.246Z,67.60
2024-05-09T06:25:32.422Z,67.25
2024-05-09T06:28:00.396Z,67.36
2024-05-09T06:30:36.591Z,67.52
2024-05-09T06:33:07.315Z,67.47
2024-05-09T06:35:34.451Z,67.05
2024-05-09T06:38:01.580Z,67.41
2024-05-09T06:40:36.439Z,67.26
2024-05-09T06:43:10.601Z,67.27
2024-05-09T06:45:37.358Z,67.10
2024-05-09T06:48:04.483Z,66.57
2024-05-09T06:50:36.796Z,66.59
2024-05-09T06:53:05.059Z,67.15
2024-05-09T06:55:31.813Z,66.66
2024-05-09T06:57:58.496Z,66.45
2024-05-09T07:00:34.384Z,66.66
2024-05-09T07:03:13.513Z,66.21
2024-05-09T07:05:42.642Z,66.06
2024-05-09T07:08:09.914Z,66.22
2024-05-09T07:10:37.193Z,65.93
2024-05-09T07:13:14.889Z,66.26
2024-05-09T07:15:43.219Z,65.81
2024-05-09T07:18:17.293Z,65.18
2024-05-09T07:20:45.976Z,64.94
2024-05-09T07:23:13.199Z,64.68
2024-05-09T07:25:41.158Z,64.93
2024-05-09T07:28:15.455Z,64.56
2024-05-09T07:30:42.944Z,64.51
2024-05-09T07:33:15.430Z,64.30
2024-05-09T07:35:42.306Z,63.95
2024-05-09T07:38:09.071Z,63.71
2024-05-09T07:40:37.116Z,63.90
2024-05-09T07:43:08.278Z,63.51
2024-05-09T07:52:32.652Z,63.57
2024-05-09T07:55:54.004Z,63.21
2024-05-09T07:58:20.894Z,63.47
2024-05-09T08:00:47.570Z,63.37
2024-05-09T08:03:14.403Z,63.40
2024-05-09T08:05:41.474Z,62.90
2024-05-09T08:08:08.275Z,62.42
2024-05-09T08:10:35.276Z,62.57
2024-05-09T08:13:02.152Z,62.60
2024-05-09T08:15:29.071Z,62.04
2024-05-09T08:17:56.261Z,62.21
2024-05-09T08:20:30.767Z,61.76
2024-05-09T08:23:00.510Z,62.10
2024-05-09T08:25:27.923Z,61.91
2024-05-09T08:27:54.625Z,61.80
2024-05-09T08:30:29.774Z,61.75
2024-05-09T08:33:03.680Z,61.78
2024-05-09T08:35:30.385Z,61.19
2024-05-09T08:37:58.154Z,61.20
2024-05-09T08:40:32.916Z,61.32
2024-05-09T08:43:04.368Z,61.51
2024-05-09T08:45:33.365Z,61.21
2024-05-09T08:48:04.049Z,61.15
2024-05-09T08:50:37.877Z,61.14
2024-05-09T08:53:06.263Z,60.83
2024-05-09T08:55:33.073Z,60.73
2024-05-09T08:58:02.684Z,60.73
2024-05-09T09:00:36.818Z,60.54
2024-05-09T09:03:09.105Z,60.12
2024-05-09T09:05:38.808Z,60.18
2024-05-09T09:08:08.965Z,59.83
2024-05-09T09:10:39.565Z,59.75
2024-05-09T09:13:09.446Z,59.73
2024-05-09T09:15:49.843Z,59.37
2024-05-09T09:18:17.650Z,59.44
2024-05-09T09:20:45.169Z,58.67
2024-05-09T09:23:11.883Z,58.69
2024-05-09T09:25:42.008Z,58.50
2024-05-09T09:28:09.560Z,58.34
2024-05-09T09:30:40.451Z,57.98
2024-05-09T09:33:09.367Z,58.14
2024-05-09T09:35:36.396Z,58.15
2024-05-09T09:38:04.475Z,58.07
2024-05-09T09:40:39.093Z,58.39
2024-05-09T09:43:18.628Z,58.58
2024-05-09T09:45:46.887Z,58.53
2024-05-09T09:48:15.500Z,58.20
2024-05-09T09:50:42.491Z,57.84
2024-05-09T09:53:09.991Z,57.60
2024-05-09T09:55:37.546Z,57.62
2024-05-09T09:58:08.787Z,57.31
2024-05-09T10:00:37.914Z,57.08
2024-05-09T10:03:05.437Z,57.04
2024-05-09T10:05:33.746Z,56.73
2024-05-09T10:08:06.635Z,56.66
2024-05-09T10:10:35.293Z,56.46
2024-05-09T10:13:07.255Z,56.74
2024-05-09T10:15:45.372Z,56.90
2024-05-09T10:18:12.381Z,56.29
2024-05-09T10:20:40.773Z,55.99
2024-05-09T10:23:23.674Z,56.42
2024-05-09T10:26:01.119Z,55.92
2024-05-09T10:28:29.109Z,55.95
2024-05-09T10:31:08.855Z,55.45
2024-05-09T10:33:49.071Z,55.78
2024-05-09T10:36:25.649Z,55.40
2024-05-09T10:38:53.690Z,54.72
2024-05-09T10:41:21.180Z,55.03
2024-05-09T10:43:48.908Z,54.96
2024-05-09T10:46:16.497Z,54.84
2024-05-09T10:48:44.306Z,54.21
2024-05-09T10:51:11.787Z,54.23
2024-05-09T10:53:42.262Z,54.21
2024-05-09T10:56:09.727Z,53.50
2024-05-09T10:58:36.637Z,53.21
2024-05-09T11:01:06.751Z,53.02
2024-05-09T11:03:35.154Z,52.78
2024-05-09T11:06:02.455Z,52.54
2024-05-09T11:08:31.796Z,52.18
2024-05-09T11:10:59.696Z,52.42
2024-05-09T11:13:29.475Z,51.67
2024-05-09T11:15:56.382Z,51.67
2024-05-09T11:18:25.602Z,51.76
2024-05-09T11:20:54.571Z,51.83
2024-05-09T11:23:26.227Z,52.60
2024-05-09T11:25:57.826Z,51.92
2024-05-09T11:28:26.792Z,52.07
2024-05-09T11:31:06.407Z,52.55
2024-05-09T11:33:36.859Z,52.70
2024-05-09T11:36:04.328Z,52.33
2024-05-09T11:38:31.356Z,52.77
2024-05-09T11:40:58.058Z,52.85
2024-05-09T11:43:24.754Z,52.87
2024-05-09T11:45:51.830Z,52.66
2024-05-09T11:48:18.666Z,52.49
2024-05-09T11:50:45.411Z,52.42
2024-05-09T11:53:12.384Z,51.40
2024-05-09T11:55:39.000Z,50.87
2024-05-09T11:58:06.770Z,51.10
2024-05-09T12:00:37.157Z,51.19
2024-05-09T12:03:05.834Z,51.07
2024-05-09T12:05:33.764Z,51.09
2024-05-09T12:08:01.217Z,50.84
2024-05-09T12:10:33.345Z,50.54
2024-05-09T12:13:02.852Z,50.56
2024-05-09T12:15:30.227Z,50.86
2024-05-09T12:17:59.113Z,50.56
2024-05-09T12:20:35.123Z,50.45
2024-05-09T12:23:05.203Z,50.49
2024-05-09T12:25:31.931Z,50.72
2024-05-09T12:27:58.799Z,50.83
2024-05-09T12:30:34.980Z,50.85
2024-05-09T12:33:05.953Z,51.21
2024-05-09T12:35:33.002Z,51.25
2024-05-09T12:37:59.787Z,51.05
2024-05-09T12:40:34.596Z,50.93
2024-05-09T12:43:05.082Z,50.90
2024-05-09T12:45:32.531Z,50.90
2024-05-09T12:47:59.610Z,50.75
2024-05-09T12:50:32.360Z,50.29
2024-05-09T12:53:01.600Z,50.68
2024-05-09T12:55:31.770Z,50.25
2024-05-09T12:58:04.784Z,49.32
2024-05-09T13:00:34.122Z,49.66
2024-05-09T13:03:01.644Z,49.84
2024-05-09T13:05:28.957Z,50.15
2024-05-09T13:07:56.930Z,50.24
2024-05-09T13:10:31.124Z,49.80
2024-05-09T13:13:01.017Z,49.54
2024-05-09T13:15:29.841Z,49.05
2024-05-09T13:18:00.291Z,49.31
2024-05-09T13:20:33.227Z,49.56
2024-05-09T13:23:03.958Z,49.55
2024-05-09T13:25:30.802Z,49.51
2024-05-09T13:27:57.823Z,48.88
2024-05-09T13:30:30.183Z,48.40
2024-05-09T13:33:06.069Z,48.34
2024-05-09T13:35:35.187Z,48.96
2024-05-09T13:38:02.955Z,48.97
2024-05-09T13:40:34.190Z,49.41
2024-05-09T13:43:03.682Z,49.62
2024-05-09T13:45:30.657Z,49.58
2024-05-09T13:47:57.705Z,49.55
2024-05-09T13:50:33.114Z,49.22
2024-05-09T13:53:02.846Z,48.81
2024-05-09T13:55:29.593Z,48.47
2024-05-09T13:57:56.695Z,48.70
2024-05-09T14:00:37.833Z,49.04
2024-05-09T14:03:10.548Z,49.52
2024-05-09T14:05:37.556Z,48.76
2024-05-09T14:08:04.736Z,48.48
2024-05-09T14:10:32.465Z,48.38
2024-05-09T14:13:01.156Z,47.84
2024-05-09T14:15:28.199Z,48.15
2024-05-09T14:17:55.676Z,48.24
2024-05-09T14:20:30.687Z,48.29
2024-05-09T14:23:00.806Z,48.30
2024-05-09T14:25:30.026Z,48.33
2024-05-09T14:28:00.126Z,48.42
2024-05-09T14:30:34.744Z,48.79
2024-05-09T14:33:06.269Z,48.65
2024-05-09T14:35:34.080Z,48.79
2024-05-09T14:38:00.826Z,48.96
2024-05-09T14:40:37.179Z,49.56
2024-05-09T14:43:09.983Z,49.36
2024-05-09T14:45:36.826Z,49.00
2024-05-09T14:48:04.209Z,49.43
2024-05-09T14:50:36.594Z,49.11
2024-05-09T14:53:07.363Z,49.20
2024-05-09T14:55:37.382Z,49.21
2024-05-09T14:58:08.997Z,48.76
2024-05-09T15:00:41.300Z,49.21
2024-05-09T15:03:11.293Z,48.95
2024-05-09T15:05:38.110Z,49.14
2024-05-09T15:08:08.691Z,48.55
2024-05-09T15:10:36.962Z,48.59
2024-05-09T15:13:06.033Z,48.34
2024-05-09T15:15:34.047Z,48.41
2024-05-09T15:18:00.931Z,48.25
2024-05-09T15:20:34.382Z,48.01
2024-05-09T15:23:03.804Z,48.51
2024-05-09T15:25:30.997Z,48.76
2024-05-09T15:27:57.934Z,48.36
2024-05-09T15:30:30.735Z,48.84
2024-05-09T15:33:01.157Z,48.92
2024-05-09T15:35:28.249Z,49.25
2024-05-09T15:37:55.348Z,49.76
2024-05-09T15:40:31.304Z,49.14
2024-05-09T15:43:05.772Z,49.40
2024-05-09T15:45:32.934Z,49.32
2024-05-09T15:48:00.220Z,49.63
2024-05-09T15:50:35.960Z,49.25
2024-05-09T15:53:07.708Z,49.55
2024-05-09T15:55:35.324Z,49.32
2024-05-09T15:58:03.685Z,49.46
2024-05-09T16:00:37.850Z,49.35
2024-05-09T16:03:08.914Z,49.23
2024-05-09T16:05:36.434Z,49.20
2024-05-09T16:08:03.611Z,48.70
2024-05-09T16:10:33.070Z,48.32
2024-05-09T16:13:02.296Z,48.84
2024-05-09T16:15:29.621Z,49.12
2024-05-09T16:17:56.592Z,49.30
2024-05-09T16:22:55.798Z,49.34
2024-05-09T16:25:22.433Z,49.80
2024-05-09T16:27:51.203Z,49.65
2024-05-09T16:30:24.842Z,49.35
2024-05-09T16:32:58.523Z,49.34
2024-05-09T16:35:25.185Z,49.58
2024-05-09T16:37:51.871Z,49.88
2024-05-09T16:40:25.691Z,49.37
2024-05-09T16:43:03.644Z,49.69
2024-05-09T16:45:30.608Z,49.58
2024-05-09T16:48:00.412Z,49.85
2024-05-09T16:50:32.479Z,49.51
2024-05-09T16:53:01.835Z,49.96
2024-05-09T16:55:28.851Z,50.54
2024-05-09T16:57:56.968Z,50.74
2024-05-09T17:00:35.187Z,50.32
2024-05-09T17:03:08.864Z,50.18
2024-05-09T17:05:36.414Z,50.22
2024-05-09T17:08:03.773Z,50.63
2024-05-09T17:10:33.717Z,50.58
2024-05-09T17:13:03.839Z,50.46
2024-05-09T17:15:32.489Z,50.62
2024-05-09T17:17:59.474Z,50.56
2024-05-09T17:20:32.624Z,50.71
2024-05-09T17:23:03.228Z,51.35
2024-05-09T17:25:29.983Z,51.26
2024-05-09T17:27:57.284Z,51.11
2024-05-09T17:30:29.334Z,50.69
2024-05-09T17:33:03.050Z,51.10
2024-05-09T17:35:29.961Z,51.08
2024-05-09T17:37:56.830Z,51.33
2024-05-09T17:42:53.397Z,51.50
2024-05-09T17:45:20.669Z,50.54
2024-05-09T17:47:47.729Z,50.41
2024-05-09T17:50:21.017Z,50.60
2024-05-09T17:52:53.834Z,50.68
2024-05-09T17:55:21.326Z,50.26
2024-05-09T17:57:48.509Z,50.62
2024-05-09T18:00:24.594Z,51.29
2024-05-09T18:03:00.622Z,50.90
2024-05-09T18:05:29.085Z,51.03
2024-05-09T18:07:57.085Z,51.09
2024-05-09T18:10:29.984Z,51.82
2024-05-09T18:13:02.568Z,52.16
2024-05-09T18:15:29.230Z,51.78
2024-05-09T18:17:56.107Z,51.67
2024-05-09T18:20:32.749Z,52.11
2024-05-09T18:23:07.619Z,51.96
2024-05-09T18:25:34.471Z,52.20
2024-05-09T18:28:05.462Z,52.09
2024-05-09T18:30:35.414Z,52.45
2024-05-09T18:33:05.360Z,52.87
2024-05-09T18:35:33.416Z,52.92
2024-05-09T18:38:00.380Z,52.83
2024-05-09T18:40:33.659Z,52.98
2024-05-09T18:43:05.175Z,53.25
2024-05-09T18:45:33.089Z,53.77
2024-05-09T18:47:59.851Z,53.52
2024-05-09T18:50:35.272Z,53.79
2024-05-09T18:53:06.207Z,53.74
2024-05-09T18:55:33.174Z,53.75
2024-05-09T18:58:00.062Z,54.05
2024-05-09T19:00:33.999Z,53.97
2024-05-09T19:03:05.978Z,54.04
2024-05-09T19:05:35.307Z,54.11
2024-05-09T19:08:02.846Z,54.15
2024-05-09T19:10:34.258Z,54.24
2024-05-09T19:13:06.507Z,54.41
2024-05-09T19:15:37.402Z,54.44
2024-05-09T19:18:04.490Z,54.40
2024-05-09T19:20:34.552Z,54.46
2024-05-09T19:23:02.851Z,54.90
2024-05-09T19:25:29.579Z,54.79
2024-05-09T19:27:56.266Z,55.00
2024-05-09T19:30:30.431Z,54.88
2024-05-09T19:33:05.835Z,54.98
2024-05-09T19:35:32.637Z,54.99
2024-05-09T19:37:59.511Z,55.19
2024-05-09T19:40:31.353Z,55.25
2024-05-09T19:43:01.442Z,55.00
2024-05-09T19:45:28.868Z,55.03
2024-05-09T19:47:56.245Z,55.13
2024-05-09T19:50:31.609Z,55.05
2024-05-09T19:53:04.863Z,55.35
2024-05-09T19:55:31.487Z,55.27
2024-05-09T19:57:59.055Z,55.11
2024-05-09T20:00:32.786Z,55.10
2024-05-09T20:03:03.004Z,55.29
2024-05-09T20:05:33.102Z,55.49
2024-05-09T20:08:00.128Z,54.82
2024-05-09T20:10:31.797Z,55.21
2024-05-09T20:13:00.770Z,55.45
2024-05-09T20:15:27.492Z,55.50
2024-05-09T20:17:54.809Z,55.65
2024-05-09T20:20:32.191Z,55.90
2024-05-09T20:23:04.039Z,55.89
2024-05-09T20:25:30.719Z,55.88
2024-05-09T20:27:57.542Z,55.99
2024-05-09T20:30:31.276Z,55.95
2024-05-09T20:33:00.689Z,56.06
2024-05-09T20:35:30.584Z,55.92
2024-05-09T20:37:57.397Z,55.94
2024-05-09T20:40:29.240Z,56.00
2024-05-09T20:43:00.564Z,56.04
2024-05-09T20:45:27.310Z,56.38
2024-05-09T20:47:54.176Z,56.34
2024-05-09T20:50:28.851Z,56.86
2024-05-09T20:53:03.276Z,56.78
2024-05-09T20:55:30.361Z,56.50
2024-05-09T20:57:57.409Z,56.63
2024-05-09T21:00:33.793Z,56.72
2024-05-09T21:03:06.628Z,56.55
2024-05-09T21:05:34.656Z,56.75
2024-05-09T21:08:01.759Z,56.90
2024-05-09T21:10:32.722Z,56.81
2024-05-09T21:13:01.159Z,56.97
2024-05-09T21:15:28.139Z,57.02
2024-05-09T21:17:55.187Z,57.06
2024-05-09T21:20:28.742Z,56.87
2024-05-09T21:22:58.354Z,57.08
2024-05-09T21:25:25.058Z,57.12
2024-05-09T21:27:51.968Z,57.56
2024-05-09T21:30:27.972Z,57.23
2024-05-09T21:33:04.813Z,57.66
2024-05-09T21:35:31.796Z,57.67
2024-05-09T21:37:58.459Z,57.95
2024-05-09T21:40:31.619Z,58.02
2024-05-09T21:43:01.792Z,57.89
2024-05-09T21:45:28.517Z,57.64
2024-05-09T21:47:55.393Z,57.71
2024-05-09T21:50:28.741Z,57.64
2024-05-09T21:53:03.705Z,57.54
2024-05-09T21:55:30.344Z,57.93
2024-05-09T21:57:57.144Z,57.79
2024-05-09T22:00:32.072Z,57.99
2024-05-09T22:03:03.527Z,57.86
2024-05-09T22:05:30.907Z,58.05
2024-05-09T22:07:57.736Z,58.13
2024-05-09T22:10:30.821Z,58.29
2024-05-09T22:13:01.373Z,58.39
2024-05-09T22:15:28.223Z,58.59
2024-05-09T22:17:57.110Z,58.85
2024-05-09T22:20:33.147Z,58.39
2024-05-09T22:23:04.207Z,58.61
2024-05-09T22:25:32.139Z,58.85
2024-05-09T22:28:00.111Z,58.51
2024-05-09T22:30:35.116Z,58.76
2024-05-09T22:33:06.339Z,58.63
2024-05-09T22:35:33.198Z,59.13
2024-05-09T22:38:00.251Z,59.01
2024-05-09T22:40:38.381Z,58.40
2024-05-09T22:43:13.612Z,58.37
2024-05-09T22:45:40.448Z,58.57
2024-05-09T22:48:08.454Z,58.89
2024-05-09T22:50:35.418Z,58.50
2024-05-09T22:53:02.146Z,58.78
2024-05-09T22:55:29.099Z,58.66
2024-05-09T22:57:56.063Z,59.09
2024-05-09T23:00:30.739Z,58.97
2024-05-09T23:03:00.433Z,59.32
2024-05-09T23:05:27.581Z,59.66
2024-05-09T23:07:54.366Z,59.25
2024-05-09T23:10:28.161Z,59.39
2024-05-09T23:13:01.508Z,59.85
2024-05-09T23:15:28.525Z,59.43
2024-05-09T23:17:55.548Z,60.01
2024-05-09T23:20:33.098Z,59.85
2024-05-09T23:23:04.957Z,60.02
2024-05-09T23:25:31.642Z,60.11
2024-05-09T23:27:58.396Z,60.10
2024-05-09T23:30:34.233Z,59.71
2024-05-09T23:33:06.007Z,59.94
2024-05-09T23:35:32.805Z,60.20
2024-05-09T23:37:59.621Z,60.64
2024-05-09T23:40:37.038Z,60.21
2024-05-09T23:43:07.220Z,60.45
2024-05-09T23:45:34.229Z,60.50
2024-05-09T23:48:01.564Z,60.38
2024-05-09T23:50:34.771Z,60.29
2024-05-09T23:53:05.015Z,60.38
2024-05-09T23:55:32.630Z,60.50
2024-05-09T23:57:59.581Z,60.56
